sensor_id;sensor_type;location;lat;lon;timestamp;temperature;humidity
46890;DHT22;32625;51.080;16.970;2024-03-25T00:01:38;6.70;99.90
46890;DHT22;32625;51.080;16.970;2024-03-25T00:04:05;6.70;99.90
46890;DHT22;32625;51.080;16.970;2024-03-25T00:06:31;6.90;99.90
46890;DHT22;32625;51.080;16.970;2024-03-25T00:09:00;6.70;99.90
46890;DHT22;32625;51.080;16.970;2024-03-25T00:11:27;6.70;99.90
46890;DHT22;32625;51.080;16.970;2024-03-25T00:13:53;6.70;99.90
46890;DHT22;32625;51.080;16.970;2024-03-25T00:16:19;6.70;99.90
46890;DHT22;32625;51.080;16.970;2024-03-25T00:18:45;6.70;99.90
46890;DHT22;32625;51.080;16.970;2024-03-25T00:21:11;6.70;99.90
46890;DHT22;32625;51.080;16.970;2024-03-25T00:23:37;6.70;99.90
46890;DHT22;32625;51.080;16.970;2024-03-25T00:26:03;6.80;99.90
46890;DHT22;32625;51.080;16.970;2024-03-25T00:28:29;6.80;99.90
46890;DHT22;32625;51.080;16.970;2024-03-25T00:30:55;6.80;99.90
46890;DHT22;32625;51.080;16.970;2024-03-25T00:33:21;6.70;99.90
46890;DHT22;32625;51.080;16.970;2024-03-25T00:35:47;6.70;99.90
46890;DHT22;32625;51.080;16.970;2024-03-25T00:38:14;6.70;99.90
46890;DHT22;32625;51.080;16.970;2024-03-25T00:40:40;6.70;99.90
46890;DHT22;32625;51.080;16.970;2024-03-25T00:43:06;6.50;99.90
46890;DHT22;32625;51.080;16.970;2024-03-25T00:45:32;6.40;99.90
46890;DHT22;32625;51.080;16.970;2024-03-25T00:47:58;6.30;99.90
46890;DHT22;32625;51.080;16.970;2024-03-25T00:50:25;6.20;99.90
46890;DHT22;32625;51.080;16.970;2024-03-25T00:52:51;6.10;99.90
46890;DHT22;32625;51.080;16.970;2024-03-25T00:55:18;6.10;99.90
46890;DHT22;32625;51.080;16.970;2024-03-25T00:57:45;6.00;99.90
46890;DHT22;32625;51.080;16.970;2024-03-25T01:00:11;6.00;99.90
46890;DHT22;32625;51.080;16.970;2024-03-25T01:02:37;5.90;99.90
46890;DHT22;32625;51.080;16.970;2024-03-25T01:05:04;5.80;99.90
46890;DHT22;32625;51.080;16.970;2024-03-25T01:07:31;5.90;99.90
46890;DHT22;32625;51.080;16.970;2024-03-25T01:09:57;5.90;99.90
46890;DHT22;32625;51.080;16.970;2024-03-25T01:12:25;5.90;99.90
46890;DHT22;32625;51.080;16.970;2024-03-25T01:14:52;6.00;99.90
46890;DHT22;32625;51.080;16.970;2024-03-25T01:17:18;5.90;99.90
46890;DHT22;32625;51.080;16.970;2024-03-25T01:19:44;5.90;99.90
46890;DHT22;32625;51.080;16.970;2024-03-25T01:22:10;6.00;99.90
46890;DHT22;32625;51.080;16.970;2024-03-25T01:24:36;5.90;99.90
46890;DHT22;32625;51.080;16.970;2024-03-25T01:27:02;5.90;99.90
46890;DHT22;32625;51.080;16.970;2024-03-25T01:29:28;5.90;99.90
46890;DHT22;32625;51.080;16.970;2024-03-25T01:31:54;5.80;99.90
46890;DHT22;32625;51.080;16.970;2024-03-25T01:34:20;5.80;99.90
46890;DHT22;32625;51.080;16.970;2024-03-25T01:36:46;5.80;99.90
46890;DHT22;32625;51.080;16.970;2024-03-25T01:39:12;5.80;99.90
46890;DHT22;32625;51.080;16.970;2024-03-25T01:41:39;5.80;99.90
46890;DHT22;32625;51.080;16.970;2024-03-25T01:44:05;5.70;99.90
46890;DHT22;32625;51.080;16.970;2024-03-25T01:46:31;5.70;99.90
46890;DHT22;32625;51.080;16.970;2024-03-25T01:48:58;5.70;99.90
46890;DHT22;32625;51.080;16.970;2024-03-25T01:51:24;5.70;99.90
46890;DHT22;32625;51.080;16.970;2024-03-25T01:53:52;5.70;99.90
46890;DHT22;32625;51.080;16.970;2024-03-25T01:56:18;5.70;99.90
46890;DHT22;32625;51.080;16.970;2024-03-25T01:58:45;5.70;99.90
46890;DHT22;32625;51.080;16.970;2024-03-25T02:01:12;5.70;99.90
46890;DHT22;32625;51.080;16.970;2024-03-25T02:03:42;5.60;99.90
46890;DHT22;32625;51.080;16.970;2024-03-25T02:06:15;5.60;99.90
46890;DHT22;32625;51.080;16.970;2024-03-25T02:08:43;5.60;99.90
46890;DHT22;32625;51.080;16.970;2024-03-25T02:11:10;5.70;99.90
46890;DHT22;32625;51.080;16.970;2024-03-25T02:13:37;5.70;99.90
46890;DHT22;32625;51.080;16.970;2024-03-25T02:16:03;5.70;99.90
46890;DHT22;32625;51.080;16.970;2024-03-25T02:18:29;5.80;99.90
46890;DHT22;32625;51.080;16.970;2024-03-25T02:20:57;5.80;99.90
46890;DHT22;32625;51.080;16.970;2024-03-25T02:23:23;5.80;99.90
46890;DHT22;32625;51.080;16.970;2024-03-25T02:25:53;5.80;99.90
46890;DHT22;32625;51.080;16.970;2024-03-25T02:28:20;5.80;99.90
46890;DHT22;32625;51.080;16.970;2024-03-25T02:30:46;5.80;99.90
46890;DHT22;32625;51.080;16.970;2024-03-25T02:33:13;5.80;99.90
46890;DHT22;32625;51.080;16.970;2024-03-25T02:35:40;5.80;99.90
46890;DHT22;32625;51.080;16.970;2024-03-25T02:38:07;5.80;99.90
46890;DHT22;32625;51.080;16.970;2024-03-25T02:40:35;5.80;99.90
46890;DHT22;32625;51.080;16.970;2024-03-25T02:43:01;5.80;99.90
46890;DHT22;32625;51.080;16.970;2024-03-25T02:45:28;5.80;99.90
46890;DHT22;32625;51.080;16.970;2024-03-25T02:47:54;5.70;99.90
46890;DHT22;32625;51.080;16.970;2024-03-25T02:50:21;5.80;99.90
46890;DHT22;32625;51.080;16.970;2024-03-25T02:52:47;5.80;99.90
46890;DHT22;32625;51.080;16.970;2024-03-25T02:55:13;5.80;99.90
46890;DHT22;32625;51.080;16.970;2024-03-25T02:57:39;5.80;99.90
46890;DHT22;32625;51.080;16.970;2024-03-25T03:00:05;5.80;99.90
46890;DHT22;32625;51.080;16.970;2024-03-25T03:02:32;5.80;99.90
46890;DHT22;32625;51.080;16.970;2024-03-25T03:04:58;5.80;99.90
46890;DHT22;32625;51.080;16.970;2024-03-25T03:07:25;5.80;99.90
46890;DHT22;32625;51.080;16.970;2024-03-25T03:09:51;5.80;99.90
46890;DHT22;32625;51.080;16.970;2024-03-25T03:12:17;5.80;99.90
46890;DHT22;32625;51.080;16.970;2024-03-25T03:14:43;5.80;99.90
46890;DHT22;32625;51.080;16.970;2024-03-25T03:17:09;5.80;99.90
46890;DHT22;32625;51.080;16.970;2024-03-25T03:19:35;5.70;99.90
46890;DHT22;32625;51.080;16.970;2024-03-25T03:22:02;5.70;99.90
46890;DHT22;32625;51.080;16.970;2024-03-25T03:24:27;5.70;99.90
46890;DHT22;32625;51.080;16.970;2024-03-25T03:26:54;5.70;99.90
46890;DHT22;32625;51.080;16.970;2024-03-25T03:29:20;5.80;99.90
46890;DHT22;32625;51.080;16.970;2024-03-25T03:31:47;5.80;99.90
46890;DHT22;32625;51.080;16.970;2024-03-25T03:34:12;5.80;99.90
46890;DHT22;32625;51.080;16.970;2024-03-25T03:36:38;5.80;99.90
46890;DHT22;32625;51.080;16.970;2024-03-25T03:39:06;5.80;99.90
46890;DHT22;32625;51.080;16.970;2024-03-25T03:41:35;5.70;99.90
46890;DHT22;32625;51.080;16.970;2024-03-25T03:44:02;5.70;99.90
46890;DHT22;32625;51.080;16.970;2024-03-25T03:46:28;5.70;99.90
46890;DHT22;32625;51.080;16.970;2024-03-25T03:48:54;5.70;99.90
46890;DHT22;32625;51.080;16.970;2024-03-25T03:51:20;5.70;99.90
46890;DHT22;32625;51.080;16.970;2024-03-25T03:53:47;5.70;99.90
46890;DHT22;32625;51.080;16.970;2024-03-25T03:56:13;5.70;99.90
46890;DHT22;32625;51.080;16.970;2024-03-25T03:58:39;5.60;99.90
46890;DHT22;32625;51.080;16.970;2024-03-25T04:01:17;5.60;99.90
46890;DHT22;32625;51.080;16.970;2024-03-25T04:03:43;5.60;99.90
46890;DHT22;32625;51.080;16.970;2024-03-25T04:06:11;5.60;99.90
46890;DHT22;32625;51.080;16.970;2024-03-25T04:08:41;5.60;99.90
46890;DHT22;32625;51.080;16.970;2024-03-25T04:11:08;5.50;99.90
46890;DHT22;32625;51.080;16.970;2024-03-25T04:13:34;5.60;99.90
46890;DHT22;32625;51.080;16.970;2024-03-25T04:16:04;5.70;99.90
46890;DHT22;32625;51.080;16.970;2024-03-25T04:18:32;5.70;99.90
46890;DHT22;32625;51.080;16.970;2024-03-25T04:20:59;5.70;99.90
46890;DHT22;32625;51.080;16.970;2024-03-25T04:23:26;5.60;99.90
46890;DHT22;32625;51.080;16.970;2024-03-25T04:25:53;5.60;99.90
46890;DHT22;32625;51.080;16.970;2024-03-25T04:28:19;5.60;99.90
46890;DHT22;32625;51.080;16.970;2024-03-25T04:30:53;5.60;99.90
46890;DHT22;32625;51.080;16.970;2024-03-25T04:33:19;5.60;99.90
46890;DHT22;32625;51.080;16.970;2024-03-25T04:35:46;5.60;99.90
46890;DHT22;32625;51.080;16.970;2024-03-25T04:38:14;5.60;99.90
46890;DHT22;32625;51.080;16.970;2024-03-25T04:40:40;5.60;99.90
46890;DHT22;32625;51.080;16.970;2024-03-25T04:43:06;5.60;99.90
46890;DHT22;32625;51.080;16.970;2024-03-25T04:45:32;5.70;99.90
46890;DHT22;32625;51.080;16.970;2024-03-25T04:47:58;5.70;99.90
46890;DHT22;32625;51.080;16.970;2024-03-25T04:50:24;5.70;99.90
46890;DHT22;32625;51.080;16.970;2024-03-25T04:52:51;5.70;99.90
46890;DHT22;32625;51.080;16.970;2024-03-25T04:55:17;5.80;99.90
46890;DHT22;32625;51.080;16.970;2024-03-25T04:57:43;5.80;99.90
46890;DHT22;32625;51.080;16.970;2024-03-25T05:00:10;5.80;99.90
46890;DHT22;32625;51.080;16.970;2024-03-25T05:02:38;5.70;99.90
46890;DHT22;32625;51.080;16.970;2024-03-25T05:05:05;5.70;99.90
46890;DHT22;32625;51.080;16.970;2024-03-25T05:07:33;5.70;99.90
46890;DHT22;32625;51.080;16.970;2024-03-25T05:09:59;5.70;99.90
46890;DHT22;32625;51.080;16.970;2024-03-25T05:12:26;5.70;99.90
46890;DHT22;32625;51.080;16.970;2024-03-25T05:14:58;5.70;99.90
46890;DHT22;32625;51.080;16.970;2024-03-25T05:17:24;5.70;99.90
46890;DHT22;32625;51.080;16.970;2024-03-25T05:19:50;5.70;99.90
46890;DHT22;32625;51.080;16.970;2024-03-25T05:22:17;5.70;99.90
46890;DHT22;32625;51.080;16.970;2024-03-25T05:24:43;5.70;99.90
46890;DHT22;32625;51.080;16.970;2024-03-25T05:27:09;5.70;99.90
46890;DHT22;32625;51.080;16.970;2024-03-25T05:29:35;5.80;99.90
46890;DHT22;32625;51.080;16.970;2024-03-25T05:32:01;5.80;99.90
46890;DHT22;32625;51.080;16.970;2024-03-25T05:34:28;5.90;99.90
46890;DHT22;32625;51.080;16.970;2024-03-25T05:36:54;5.90;99.90
46890;DHT22;32625;51.080;16.970;2024-03-25T05:39:21;5.90;99.90
46890;DHT22;32625;51.080;16.970;2024-03-25T05:41:48;5.90;99.90
46890;DHT22;32625;51.080;16.970;2024-03-25T05:44:14;5.90;99.90
46890;DHT22;32625;51.080;16.970;2024-03-25T05:46:40;5.90;99.90
46890;DHT22;32625;51.080;16.970;2024-03-25T05:49:07;5.90;99.90
46890;DHT22;32625;51.080;16.970;2024-03-25T05:51:33;5.90;99.90
46890;DHT22;32625;51.080;16.970;2024-03-25T05:53:59;5.80;99.90
46890;DHT22;32625;51.080;16.970;2024-03-25T05:56:26;5.80;99.90
46890;DHT22;32625;51.080;16.970;2024-03-25T05:58:59;5.80;99.90
46890;DHT22;32625;51.080;16.970;2024-03-25T06:01:26;5.70;99.90
46890;DHT22;32625;51.080;16.970;2024-03-25T06:03:53;5.70;99.90
46890;DHT22;32625;51.080;16.970;2024-03-25T06:06:19;5.70;99.90
46890;DHT22;32625;51.080;16.970;2024-03-25T06:08:45;5.70;99.90
46890;DHT22;32625;51.080;16.970;2024-03-25T06:11:11;5.60;99.90
46890;DHT22;32625;51.080;16.970;2024-03-25T06:13:37;5.50;99.90
46890;DHT22;32625;51.080;16.970;2024-03-25T06:16:03;5.50;99.90
46890;DHT22;32625;51.080;16.970;2024-03-25T06:18:29;5.50;99.90
46890;DHT22;32625;51.080;16.970;2024-03-25T06:20:57;5.40;99.90
46890;DHT22;32625;51.080;16.970;2024-03-25T06:23:25;5.30;99.90
46890;DHT22;32625;51.080;16.970;2024-03-25T06:25:52;5.30;99.90
46890;DHT22;32625;51.080;16.970;2024-03-25T06:28:19;5.30;99.90
46890;DHT22;32625;51.080;16.970;2024-03-25T06:30:46;5.20;99.90
46890;DHT22;32625;51.080;16.970;2024-03-25T06:33:31;5.20;99.90
46890;DHT22;32625;51.080;16.970;2024-03-25T06:36:16;5.20;99.90
46890;DHT22;32625;51.080;16.970;2024-03-25T06:38:43;5.20;99.90
46890;DHT22;32625;51.080;16.970;2024-03-25T06:41:09;5.20;99.90
46890;DHT22;32625;51.080;16.970;2024-03-25T06:43:36;5.20;99.90
46890;DHT22;32625;51.080;16.970;2024-03-25T06:46:04;5.20;99.90
46890;DHT22;32625;51.080;16.970;2024-03-25T06:48:30;5.30;99.90
46890;DHT22;32625;51.080;16.970;2024-03-25T06:50:58;5.30;99.90
46890;DHT22;32625;51.080;16.970;2024-03-25T06:53:25;5.30;99.90
46890;DHT22;32625;51.080;16.970;2024-03-25T06:55:55;5.30;99.90
46890;DHT22;32625;51.080;16.970;2024-03-25T06:58:23;5.40;99.90
46890;DHT22;32625;51.080;16.970;2024-03-25T07:00:49;5.50;99.90
46890;DHT22;32625;51.080;16.970;2024-03-25T07:03:16;5.60;99.90
46890;DHT22;32625;51.080;16.970;2024-03-25T07:05:46;5.70;99.90
46890;DHT22;32625;51.080;16.970;2024-03-25T07:08:12;5.70;99.90
46890;DHT22;32625;51.080;16.970;2024-03-25T07:10:41;5.80;99.90
46890;DHT22;32625;51.080;16.970;2024-03-25T07:13:07;5.90;99.90
46890;DHT22;32625;51.080;16.970;2024-03-25T07:15:35;5.90;99.90
46890;DHT22;32625;51.080;16.970;2024-03-25T07:18:01;5.90;99.90
46890;DHT22;32625;51.080;16.970;2024-03-25T07:20:27;5.90;99.90
46890;DHT22;32625;51.080;16.970;2024-03-25T07:22:53;5.90;99.90
46890;DHT22;32625;51.080;16.970;2024-03-25T07:25:23;5.90;99.90
46890;DHT22;32625;51.080;16.970;2024-03-25T07:27:49;5.90;99.90
46890;DHT22;32625;51.080;16.970;2024-03-25T07:30:15;5.90;99.90
46890;DHT22;32625;51.080;16.970;2024-03-25T07:32:41;5.90;99.90
46890;DHT22;32625;51.080;16.970;2024-03-25T07:35:07;5.90;99.90
46890;DHT22;32625;51.080;16.970;2024-03-25T07:37:36;6.00;99.90
46890;DHT22;32625;51.080;16.970;2024-03-25T07:40:02;6.00;99.90
46890;DHT22;32625;51.080;16.970;2024-03-25T07:42:30;5.90;99.90
46890;DHT22;32625;51.080;16.970;2024-03-25T07:44:56;5.90;99.90
46890;DHT22;32625;51.080;16.970;2024-03-25T07:47:22;5.80;99.90
46890;DHT22;32625;51.080;16.970;2024-03-25T07:49:48;5.80;99.90
46890;DHT22;32625;51.080;16.970;2024-03-25T07:52:14;5.80;99.90
46890;DHT22;32625;51.080;16.970;2024-03-25T07:54:42;5.80;99.90
46890;DHT22;32625;51.080;16.970;2024-03-25T07:57:09;5.90;99.90
46890;DHT22;32625;51.080;16.970;2024-03-25T07:59:35;5.90;99.90
46890;DHT22;32625;51.080;16.970;2024-03-25T08:02:01;6.00;99.90
46890;DHT22;32625;51.080;16.970;2024-03-25T08:04:28;6.00;99.90
46890;DHT22;32625;51.080;16.970;2024-03-25T08:06:55;6.30;99.90
46890;DHT22;32625;51.080;16.970;2024-03-25T08:09:21;6.10;99.90
46890;DHT22;32625;51.080;16.970;2024-03-25T08:11:47;6.00;99.90
46890;DHT22;32625;51.080;16.970;2024-03-25T08:14:13;6.00;99.90
46890;DHT22;32625;51.080;16.970;2024-03-25T08:16:39;6.00;99.90
46890;DHT22;32625;51.080;16.970;2024-03-25T08:19:05;5.90;99.90
46890;DHT22;32625;51.080;16.970;2024-03-25T08:21:31;5.90;99.90
46890;DHT22;32625;51.080;16.970;2024-03-25T08:23:57;6.00;99.90
46890;DHT22;32625;51.080;16.970;2024-03-25T08:26:23;6.00;99.90
46890;DHT22;32625;51.080;16.970;2024-03-25T08:28:50;6.10;99.90
46890;DHT22;32625;51.080;16.970;2024-03-25T08:31:16;6.10;99.90
46890;DHT22;32625;51.080;16.970;2024-03-25T08:33:42;6.20;99.90
46890;DHT22;32625;51.080;16.970;2024-03-25T08:36:08;6.20;99.90
46890;DHT22;32625;51.080;16.970;2024-03-25T08:38:34;6.30;99.90
46890;DHT22;32625;51.080;16.970;2024-03-25T08:41:01;6.30;99.90
46890;DHT22;32625;51.080;16.970;2024-03-25T08:43:27;6.30;99.90
46890;DHT22;32625;51.080;16.970;2024-03-25T08:45:53;6.20;99.90
46890;DHT22;32625;51.080;16.970;2024-03-25T08:48:19;6.30;99.90
46890;DHT22;32625;51.080;16.970;2024-03-25T08:50:45;6.30;99.90
46890;DHT22;32625;51.080;16.970;2024-03-25T08:53:11;6.40;99.90
46890;DHT22;32625;51.080;16.970;2024-03-25T08:55:37;6.30;99.90
46890;DHT22;32625;51.080;16.970;2024-03-25T08:58:03;6.30;99.90
46890;DHT22;32625;51.080;16.970;2024-03-25T09:00:29;6.20;99.90
46890;DHT22;32625;51.080;16.970;2024-03-25T09:02:55;6.20;99.90
46890;DHT22;32625;51.080;16.970;2024-03-25T09:05:21;6.00;99.90
46890;DHT22;32625;51.080;16.970;2024-03-25T09:07:51;6.00;99.90
46890;DHT22;32625;51.080;16.970;2024-03-25T09:10:21;6.00;99.90
46890;DHT22;32625;51.080;16.970;2024-03-25T09:13:06;6.00;99.90
46890;DHT22;32625;51.080;16.970;2024-03-25T09:15:32;6.00;99.90
46890;DHT22;32625;51.080;16.970;2024-03-25T09:17:58;6.10;99.90
46890;DHT22;32625;51.080;16.970;2024-03-25T09:20:24;6.00;99.90
46890;DHT22;32625;51.080;16.970;2024-03-25T09:22:52;6.10;99.90
46890;DHT22;32625;51.080;16.970;2024-03-25T09:25:18;6.00;99.90
46890;DHT22;32625;51.080;16.970;2024-03-25T09:27:48;6.00;99.90
46890;DHT22;32625;51.080;16.970;2024-03-25T09:30:14;6.10;99.90
46890;DHT22;32625;51.080;16.970;2024-03-25T09:32:41;6.10;99.90
46890;DHT22;32625;51.080;16.970;2024-03-25T09:35:09;6.00;99.90
46890;DHT22;32625;51.080;16.970;2024-03-25T09:37:35;6.00;99.90
46890;DHT22;32625;51.080;16.970;2024-03-25T09:40:02;6.00;99.90
46890;DHT22;32625;51.080;16.970;2024-03-25T09:42:36;6.10;99.90
46890;DHT22;32625;51.080;16.970;2024-03-25T09:45:08;6.10;99.90
46890;DHT22;32625;51.080;16.970;2024-03-25T09:47:34;6.20;99.90
46890;DHT22;32625;51.080;16.970;2024-03-25T09:50:02;6.30;99.90
46890;DHT22;32625;51.080;16.970;2024-03-25T09:52:30;6.40;99.90
46890;DHT22;32625;51.080;16.970;2024-03-25T09:54:56;6.40;99.90
46890;DHT22;32625;51.080;16.970;2024-03-25T09:57:22;6.50;99.90
46890;DHT22;32625;51.080;16.970;2024-03-25T09:59:49;6.60;99.90
46890;DHT22;32625;51.080;16.970;2024-03-25T10:02:16;6.60;99.90
46890;DHT22;32625;51.080;16.970;2024-03-25T10:04:46;6.70;99.90
46890;DHT22;32625;51.080;16.970;2024-03-25T10:07:24;6.70;99.90
46890;DHT22;32625;51.080;16.970;2024-03-25T10:09:53;6.70;99.90
46890;DHT22;32625;51.080;16.970;2024-03-25T10:12:19;6.70;99.90
46890;DHT22;32625;51.080;16.970;2024-03-25T10:14:45;6.70;99.90
46890;DHT22;32625;51.080;16.970;2024-03-25T10:17:11;6.60;99.90
46890;DHT22;32625;51.080;16.970;2024-03-25T10:19:37;6.60;99.90
46890;DHT22;32625;51.080;16.970;2024-03-25T10:22:08;6.60;99.90
46890;DHT22;32625;51.080;16.970;2024-03-25T10:27:05;6.50;99.90
46890;DHT22;32625;51.080;16.970;2024-03-25T10:29:31;6.50;99.90
46890;DHT22;32625;51.080;16.970;2024-03-25T10:32:01;6.50;99.90
46890;DHT22;32625;51.080;16.970;2024-03-25T10:34:27;6.40;99.90
46890;DHT22;32625;51.080;16.970;2024-03-25T10:36:56;6.40;99.90
46890;DHT22;32625;51.080;16.970;2024-03-25T10:39:27;6.40;99.90
46890;DHT22;32625;51.080;16.970;2024-03-25T10:41:57;6.40;99.90
46890;DHT22;32625;51.080;16.970;2024-03-25T10:44:26;6.50;99.90
46890;DHT22;32625;51.080;16.970;2024-03-25T10:46:59;6.60;99.90
46890;DHT22;32625;51.080;16.970;2024-03-25T10:49:33;6.70;99.90
46890;DHT22;32625;51.080;16.970;2024-03-25T10:52:01;6.80;99.90
46890;DHT22;32625;51.080;16.970;2024-03-25T10:54:32;6.80;99.90
46890;DHT22;32625;51.080;16.970;2024-03-25T10:56:59;6.90;99.90
46890;DHT22;32625;51.080;16.970;2024-03-25T10:59:30;6.80;99.90
46890;DHT22;32625;51.080;16.970;2024-03-25T11:01:56;6.90;99.90
46890;DHT22;32625;51.080;16.970;2024-03-25T11:04:23;6.90;99.90
46890;DHT22;32625;51.080;16.970;2024-03-25T11:06:50;7.00;99.90
46890;DHT22;32625;51.080;16.970;2024-03-25T11:09:24;7.00;99.90
46890;DHT22;32625;51.080;16.970;2024-03-25T11:11:52;6.90;99.90
46890;DHT22;32625;51.080;16.970;2024-03-25T11:14:18;6.90;99.90
46890;DHT22;32625;51.080;16.970;2024-03-25T11:16:55;6.90;99.90
46890;DHT22;32625;51.080;16.970;2024-03-25T11:19:25;6.90;99.90
46890;DHT22;32625;51.080;16.970;2024-03-25T11:21:53;7.00;99.90
46890;DHT22;32625;51.080;16.970;2024-03-25T11:24:28;7.10;99.90
46890;DHT22;32625;51.080;16.970;2024-03-25T11:26:55;7.10;99.90
46890;DHT22;32625;51.080;16.970;2024-03-25T11:29:21;7.20;99.90
46890;DHT22;32625;51.080;16.970;2024-03-25T11:31:49;7.10;99.90
46890;DHT22;32625;51.080;16.970;2024-03-25T11:34:19;7.20;99.90
46890;DHT22;32625;51.080;16.970;2024-03-25T11:36:45;7.20;99.90
46890;DHT22;32625;51.080;16.970;2024-03-25T11:39:13;7.20;99.90
46890;DHT22;32625;51.080;16.970;2024-03-25T11:41:40;7.20;99.90
46890;DHT22;32625;51.080;16.970;2024-03-25T11:44:08;7.30;99.90
46890;DHT22;32625;51.080;16.970;2024-03-25T11:46:39;7.20;99.90
46890;DHT22;32625;51.080;16.970;2024-03-25T11:49:13;7.20;99.90
46890;DHT22;32625;51.080;16.970;2024-03-25T11:51:40;7.10;99.90
46890;DHT22;32625;51.080;16.970;2024-03-25T11:54:10;7.30;99.90
46890;DHT22;32625;51.080;16.970;2024-03-25T11:56:37;7.20;99.90
46890;DHT22;32625;51.080;16.970;2024-03-25T11:59:06;7.30;99.90
46890;DHT22;32625;51.080;16.970;2024-03-25T12:01:33;7.20;99.90
46890;DHT22;32625;51.080;16.970;2024-03-25T12:04:18;7.20;99.90
46890;DHT22;32625;51.080;16.970;2024-03-25T12:06:45;7.20;99.90
46890;DHT22;32625;51.080;16.970;2024-03-25T12:09:12;7.20;99.90
46890;DHT22;32625;51.080;16.970;2024-03-25T12:11:57;7.20;99.90
46890;DHT22;32625;51.080;16.970;2024-03-25T12:14:24;7.30;99.90
46890;DHT22;32625;51.080;16.970;2024-03-25T12:16:53;7.50;99.90
46890;DHT22;32625;51.080;16.970;2024-03-25T12:19:20;7.60;99.90
46890;DHT22;32625;51.080;16.970;2024-03-25T12:21:47;7.80;99.90
46890;DHT22;32625;51.080;16.970;2024-03-25T12:24:14;7.90;99.90
46890;DHT22;32625;51.080;16.970;2024-03-25T12:26:40;8.00;99.90
46890;DHT22;32625;51.080;16.970;2024-03-25T12:29:06;8.00;99.90
46890;DHT22;32625;51.080;16.970;2024-03-25T12:31:33;8.00;99.90
46890;DHT22;32625;51.080;16.970;2024-03-25T12:34:00;7.90;99.90
46890;DHT22;32625;51.080;16.970;2024-03-25T12:36:26;7.90;99.90
46890;DHT22;32625;51.080;16.970;2024-03-25T12:38:55;7.90;99.90
46890;DHT22;32625;51.080;16.970;2024-03-25T12:41:24;7.90;99.90
46890;DHT22;32625;51.080;16.970;2024-03-25T12:43:51;7.90;99.90
46890;DHT22;32625;51.080;16.970;2024-03-25T12:46:17;7.80;99.90
46890;DHT22;32625;51.080;16.970;2024-03-25T12:48:43;7.70;99.90
46890;DHT22;32625;51.080;16.970;2024-03-25T12:51:14;7.70;99.90
46890;DHT22;32625;51.080;16.970;2024-03-25T12:53:40;7.70;99.90
46890;DHT22;32625;51.080;16.970;2024-03-25T12:56:07;7.60;99.90
46890;DHT22;32625;51.080;16.970;2024-03-25T12:58:34;7.60;99.90
46890;DHT22;32625;51.080;16.970;2024-03-25T13:01:00;7.60;99.90
46890;DHT22;32625;51.080;16.970;2024-03-25T13:03:26;7.70;99.90
46890;DHT22;32625;51.080;16.970;2024-03-25T13:05:52;7.80;99.90
46890;DHT22;32625;51.080;16.970;2024-03-25T13:08:19;7.90;99.90
46890;DHT22;32625;51.080;16.970;2024-03-25T13:10:45;8.10;99.90
46890;DHT22;32625;51.080;16.970;2024-03-25T13:13:11;8.20;99.90
46890;DHT22;32625;51.080;16.970;2024-03-25T13:15:38;8.20;99.90
46890;DHT22;32625;51.080;16.970;2024-03-25T13:18:04;8.30;99.90
46890;DHT22;32625;51.080;16.970;2024-03-25T13:20:30;8.40;99.90
46890;DHT22;32625;51.080;16.970;2024-03-25T13:22:56;8.40;99.90
46890;DHT22;32625;51.080;16.970;2024-03-25T13:25:25;8.50;99.90
46890;DHT22;32625;51.080;16.970;2024-03-25T13:27:53;8.60;99.90
46890;DHT22;32625;51.080;16.970;2024-03-25T13:30:19;8.70;99.90
46890;DHT22;32625;51.080;16.970;2024-03-25T13:32:45;8.90;99.90
46890;DHT22;32625;51.080;16.970;2024-03-25T13:35:11;9.00;99.90
46890;DHT22;32625;51.080;16.970;2024-03-25T13:37:37;9.10;99.90
46890;DHT22;32625;51.080;16.970;2024-03-25T13:40:03;9.20;99.90
46890;DHT22;32625;51.080;16.970;2024-03-25T13:42:31;9.20;99.90
46890;DHT22;32625;51.080;16.970;2024-03-25T13:44:57;9.20;99.90
46890;DHT22;32625;51.080;16.970;2024-03-25T13:47:24;9.20;99.90
46890;DHT22;32625;51.080;16.970;2024-03-25T13:49:49;9.20;99.90
46890;DHT22;32625;51.080;16.970;2024-03-25T13:52:25;9.30;99.90
46890;DHT22;32625;51.080;16.970;2024-03-25T13:54:51;9.30;99.90
46890;DHT22;32625;51.080;16.970;2024-03-25T13:57:17;9.40;99.90
46890;DHT22;32625;51.080;16.970;2024-03-25T13:59:43;9.60;99.90
46890;DHT22;32625;51.080;16.970;2024-03-25T14:02:09;9.60;99.90
46890;DHT22;32625;51.080;16.970;2024-03-25T14:04:35;9.50;99.90
46890;DHT22;32625;51.080;16.970;2024-03-25T14:07:01;9.30;99.90
46890;DHT22;32625;51.080;16.970;2024-03-25T14:09:27;9.10;99.90
46890;DHT22;32625;51.080;16.970;2024-03-25T14:11:53;8.80;99.90
46890;DHT22;32625;51.080;16.970;2024-03-25T14:14:20;8.50;99.90
46890;DHT22;32625;51.080;16.970;2024-03-25T14:16:46;8.30;99.90
46890;DHT22;32625;51.080;16.970;2024-03-25T14:19:12;8.10;99.90
46890;DHT22;32625;51.080;16.970;2024-03-25T14:21:38;8.00;99.90
46890;DHT22;32625;51.080;16.970;2024-03-25T14:24:05;7.80;99.90
46890;DHT22;32625;51.080;16.970;2024-03-25T14:26:31;7.60;99.90
46890;DHT22;32625;51.080;16.970;2024-03-25T14:28:58;7.70;99.90
46890;DHT22;32625;51.080;16.970;2024-03-25T14:31:26;7.70;99.90
46890;DHT22;32625;51.080;16.970;2024-03-25T14:33:52;7.70;99.90
46890;DHT22;32625;51.080;16.970;2024-03-25T14:36:18;7.80;99.90
46890;DHT22;32625;51.080;16.970;2024-03-25T14:38:44;7.80;99.90
46890;DHT22;32625;51.080;16.970;2024-03-25T14:41:11;7.70;99.90
46890;DHT22;32625;51.080;16.970;2024-03-25T14:43:39;7.70;99.90
46890;DHT22;32625;51.080;16.970;2024-03-25T14:46:05;7.80;99.90
46890;DHT22;32625;51.080;16.970;2024-03-25T14:48:31;7.90;99.90
46890;DHT22;32625;51.080;16.970;2024-03-25T14:50:58;8.10;99.90
46890;DHT22;32625;51.080;16.970;2024-03-25T14:53:24;8.20;99.90
46890;DHT22;32625;51.080;16.970;2024-03-25T14:55:50;8.30;99.90
46890;DHT22;32625;51.080;16.970;2024-03-25T14:58:17;8.40;99.90
46890;DHT22;32625;51.080;16.970;2024-03-25T15:00:43;8.50;99.90
46890;DHT22;32625;51.080;16.970;2024-03-25T15:03:09;8.50;99.90
46890;DHT22;32625;51.080;16.970;2024-03-25T15:05:35;8.90;99.90
46890;DHT22;32625;51.080;16.970;2024-03-25T15:08:01;8.50;99.90
46890;DHT22;32625;51.080;16.970;2024-03-25T15:10:27;8.50;99.90
46890;DHT22;32625;51.080;16.970;2024-03-25T15:12:54;8.60;99.90
46890;DHT22;32625;51.080;16.970;2024-03-25T15:15:20;8.60;99.90
46890;DHT22;32625;51.080;16.970;2024-03-25T15:17:46;8.60;99.90
46890;DHT22;32625;51.080;16.970;2024-03-25T15:20:12;8.50;99.90
46890;DHT22;32625;51.080;16.970;2024-03-25T15:22:38;8.50;99.90
46890;DHT22;32625;51.080;16.970;2024-03-25T15:25:05;8.50;99.90
46890;DHT22;32625;51.080;16.970;2024-03-25T15:27:30;8.40;99.90
46890;DHT22;32625;51.080;16.970;2024-03-25T15:29:57;8.40;99.90
46890;DHT22;32625;51.080;16.970;2024-03-25T15:32:23;8.40;99.90